createdAt,value
2023-02-02T00:16:52.269Z,30.10
2023-02-02T00:18:56.380Z,28.48
2023-02-02T00:20:58.284Z,30.17
2023-02-02T00:23:00.479Z,30.33
2023-02-02T00:25:02.366Z,24.63
2023-02-02T00:27:04.289Z,31.35
2023-02-02T00:29:07.865Z,32.67
2023-02-02T00:31:10.097Z,24.42
2023-02-02T00:33:11.988Z,28.05
2023-02-02T00:35:14.874Z,28.00
2023-02-02T00:37:17.035Z,30.98
2023-02-02T00:39:22.216Z,24.38
2023-02-02T00:41:24.105Z,26.90
2023-02-02T00:43:25.928Z,27.60
2023-02-02T00:45:27.892Z,26.30
2023-02-02T00:49:31.689Z,27.42
2023-02-02T00:53:35.360Z,23.75
2023-02-02T00:55:37.287Z,23.73
2023-02-02T00:57:39.704Z,28.27
2023-02-02T00:59:42.538Z,27.48
2023-02-02T01:01:44.473Z,26.08
2023-02-02T01:05:50.184Z,23.83
2023-02-02T01:07:52.117Z,21.90
2023-02-02T01:09:53.986Z,25.65
2023-02-02T01:11:57.387Z,36.45
2023-02-02T01:13:59.296Z,27.88
2023-02-02T01:16:02.431Z,25.65
2023-02-02T01:18:04.530Z,28.98
2023-02-02T01:22:09.520Z,26.20
2023-02-02T01:24:11.499Z,37.00
2023-02-02T01:28:15.511Z,30.08
2023-02-02T01:30:17.428Z,18.15
2023-02-02T01:32:19.368Z,21.80
2023-02-02T01:36:24.293Z,28.15
2023-02-02T01:38:26.107Z,35.45
2023-02-02T01:40:27.954Z,30.40
2023-02-02T01:42:29.852Z,21.38
2023-02-02T01:44:53.285Z,21.80
2023-02-02T01:46:55.137Z,23.77
2023-02-02T01:49:02.943Z,24.95
2023-02-02T01:51:09.529Z,30.67
2023-02-02T01:53:11.800Z,34.42
2023-02-02T01:55:16.754Z,26.00
2023-02-02T01:57:35.576Z,22.50
2023-02-02T01:59:38.618Z,18.27
2023-02-02T02:01:41.172Z,21.95
2023-02-02T04:15:38.867Z,27.02
2023-02-02T04:19:42.582Z,27.83
2023-02-02T04:23:46.188Z,28.02
2023-02-02T04:25:52.213Z,24.35
2023-02-02T04:27:54.075Z,21.77
2023-02-02T04:29:55.901Z,21.05
2023-02-02T04:31:57.968Z,16.85
2023-02-02T04:34:00.280Z,17.27
2023-02-02T04:36:02.452Z,25.30
2023-02-02T04:38:04.288Z,21.98
2023-02-02T04:40:06.794Z,24.67
2023-02-02T04:42:08.739Z,22.35
2023-02-02T04:44:16.074Z,18.35
2023-02-02T04:46:18.023Z,16.88
2023-02-02T04:48:19.854Z,20.67
2023-02-02T04:50:21.732Z,25.13
2023-02-02T04:52:23.678Z,28.17
2023-02-02T04:54:25.551Z,30.15
2023-02-02T04:56:29.159Z,23.83
2023-02-02T04:58:31.051Z,16.17
2023-02-02T05:00:32.936Z,16.65
2023-02-02T05:02:39.465Z,17.85
2023-02-02T05:04:41.656Z,24.25
2023-02-02T05:06:43.558Z,23.20
2023-02-02T05:08:47.895Z,24.20
2023-02-02T05:10:50.281Z,22.83
2023-02-02T05:12:55.987Z,14.85
2023-02-02T05:15:01.012Z,20.63
2023-02-02T05:17:03.029Z,18.13
2023-02-02T05:21:06.594Z,19.23
2023-02-02T05:23:08.540Z,17.80
2023-02-02T05:27:12.516Z,20.40
2023-02-02T05:29:14.420Z,21.98
2023-02-02T05:31:16.473Z,15.90
2023-02-02T05:33:21.117Z,17.27
2023-02-02T05:35:23.478Z,14.13
2023-02-02T05:37:25.606Z,12.43
2023-02-02T05:39:27.439Z,20.90
2023-02-02T05:41:29.458Z,21.65
2023-02-02T05:45:35.372Z,21.45
2023-02-02T05:47:37.288Z,25.27
2023-02-02T05:49:40.315Z,25.38
2023-02-02T05:51:48.399Z,24.65
2023-02-02T05:53:50.331Z,23.60
2023-02-02T05:55:52.172Z,27.38
2023-02-02T05:57:54.042Z,24.40
2023-02-02T05:59:56.132Z,30.90
2023-02-02T06:01:58.046Z,25.45
2023-02-02T08:14:23.036Z,20.48
2023-02-02T08:16:26.657Z,30.25
2023-02-02T08:18:28.547Z,25.98
2023-02-02T08:20:30.401Z,26.80
2023-02-02T08:22:32.295Z,22.25
2023-02-02T08:24:34.221Z,22.50
2023-02-02T08:26:36.230Z,19.90
2023-02-02T08:30:40.207Z,22.23
2023-02-02T08:32:42.132Z,18.55
2023-02-02T08:34:43.990Z,21.00
2023-02-02T08:36:45.836Z,20.02
2023-02-02T08:38:48.278Z,23.58
2023-02-02T08:40:50.180Z,36.08
2023-02-02T08:42:55.445Z,19.55
2023-02-02T08:46:03.049Z,23.05
2023-02-02T08:47:19.200Z,28.33
2023-02-02T08:49:21.153Z,25.90
2023-02-02T08:51:23.032Z,21.73
2023-02-02T08:53:25.868Z,20.92
2023-02-02T08:55:27.741Z,22.23
2023-02-02T08:57:30.497Z,20.92
2023-02-02T08:59:32.364Z,20.90
2023-02-02T09:01:35.379Z,19.50
2023-02-02T09:03:40.276Z,24.13
2023-02-02T09:05:42.256Z,25.30
2023-02-02T09:07:44.124Z,19.80
2023-02-02T09:09:45.981Z,18.95
2023-02-02T09:11:47.909Z,18.60
2023-02-02T09:13:54.747Z,18.90
2023-02-02T09:16:00.633Z,23.17
2023-02-02T09:18:02.491Z,25.40
2023-02-02T09:20:04.907Z,19.60
2023-02-02T09:22:06.774Z,26.92
2023-02-02T09:24:11.600Z,24.85
2023-02-02T09:26:14.990Z,19.52
2023-02-02T09:28:16.883Z,15.38
2023-02-02T09:30:19.193Z,22.00
2023-02-02T09:32:21.024Z,19.05
2023-02-02T09:34:22.982Z,21.50
2023-02-02T09:36:26.928Z,17.35
2023-02-02T09:38:28.908Z,20.75
2023-02-02T09:40:33.125Z,27.80
2023-02-02T09:43:08.245Z,21.10
2023-02-02T09:45:33.286Z,19.20
2023-02-02T09:47:55.430Z,17.77
2023-02-02T09:50:22.044Z,16.75
2023-02-02T09:52:27.362Z,21.90
2023-02-02T09:54:36.773Z,18.42
2023-02-02T09:56:41.852Z,15.65
2023-02-02T09:58:51.309Z,15.30
2023-02-02T10:01:08.089Z,16.60
2023-02-02T10:03:21.219Z,13.13
2023-02-02T10:05:28.297Z,20.40
2023-02-02T10:07:45.637Z,17.38
2023-02-02T10:09:58.022Z,19.42
2023-02-02T10:12:41.011Z,16.73
2023-02-02T10:14:50.361Z,20.90
2023-02-02T10:16:58.676Z,13.75
2023-02-02T10:19:10.417Z,12.90
2023-02-02T10:21:22.533Z,13.68
2023-02-02T10:23:40.522Z,13.23
2023-02-02T10:25:54.435Z,19.27
2023-02-02T10:28:18.266Z,18.98
2023-02-02T10:30:51.897Z,14.27
2023-02-02T10:33:07.516Z,12.85
2023-02-02T10:35:55.708Z,18.10
2023-02-02T10:38:04.289Z,15.57
2023-02-02T10:40:43.751Z,18.08
2023-02-02T10:43:12.975Z,13.50
2023-02-02T10:45:20.555Z,14.50
2023-02-02T10:47:34.644Z,18.23
2023-02-02T10:49:40.821Z,20.58
2023-02-02T10:51:50.522Z,16.73
2023-02-02T10:53:59.166Z,16.27
2023-02-02T10:56:06.038Z,15.40
2023-02-02T10:58:13.670Z,16.98
2023-02-02T11:00:23.179Z,18.60
2023-02-02T11:02:25.460Z,13.65
2023-02-02T11:06:52.093Z,13.18
2023-02-02T11:09:03.957Z,12.15
2023-02-02T11:11:21.142Z,15.13
2023-02-02T11:13:37.405Z,16.38
2023-02-02T11:15:39.277Z,13.98
2023-02-02T11:17:41.191Z,17.17
2023-02-02T11:19:43.049Z,12.95
2023-02-02T11:21:50.091Z,14.10
2023-02-02T11:23:58.043Z,12.20
2023-02-02T11:26:02.574Z,13.68
2023-02-02T11:28:22.159Z,13.20
2023-02-02T11:30:38.437Z,14.05
2023-02-02T11:32:41.927Z,14.25
2023-02-02T11:34:43.854Z,16.80
2023-02-02T11:37:03.879Z,14.13
2023-02-02T11:39:21.807Z,16.23
2023-02-02T11:41:23.778Z,14.30
2023-02-02T11:43:33.133Z,13.05
2023-02-02T11:45:42.018Z,15.45
2023-02-02T11:47:44.610Z,15.95
2023-02-02T11:49:47.344Z,17.38
2023-02-02T11:52:05.203Z,21.80
2023-02-02T11:54:17.978Z,19.65
2023-02-02T11:56:26.630Z,18.40
2023-02-02T11:58:46.725Z,19.02
2023-02-02T12:00:54.839Z,19.70
2023-02-02T12:03:00.172Z,19.00
2023-02-02T12:05:23.624Z,21.67
2023-02-02T12:07:32.137Z,19.67
2023-02-02T12:09:34.020Z,13.25
2023-02-02T12:11:50.996Z,15.50
2023-02-02T12:14:12.246Z,15.65
2023-02-02T12:16:35.802Z,17.45
2023-02-02T12:19:15.165Z,18.98
2023-02-02T12:21:35.604Z,15.15
2023-02-02T12:24:03.671Z,17.83
2023-02-02T12:26:17.963Z,19.90
2023-02-02T12:28:27.930Z,19.10
2023-02-02T12:30:37.551Z,18.73
2023-02-02T12:32:51.058Z,17.58
2023-02-02T12:35:09.545Z,17.15
2023-02-02T12:37:53.961Z,17.92
2023-02-02T12:40:02.764Z,14.55
2023-02-02T12:42:39.653Z,13.07
2023-02-02T12:44:56.500Z,15.68
2023-02-02T12:47:07.395Z,15.43
2023-02-02T12:49:18.252Z,12.40
2023-02-02T12:51:39.091Z,16.23
2023-02-02T12:54:34.882Z,18.27
2023-02-02T12:56:26.251Z,19.75
2023-02-02T12:58:49.071Z,11.63
2023-02-02T13:00:56.651Z,13.15
2023-02-02T13:03:09.367Z,15.05
2023-02-02T13:05:48.648Z,23.95
2023-02-02T13:08:17.427Z,22.08
2023-02-02T13:10:35.686Z,15.88
2023-02-02T13:12:43.424Z,14.15
2023-02-02T13:14:50.356Z,14.07
2023-02-02T13:16:57.148Z,13.93
2023-02-02T13:19:08.273Z,15.07
2023-02-02T13:21:16.925Z,16.23
2023-02-02T13:23:33.826Z,15.63
2023-02-02T13:25:43.077Z,14.70
2023-02-02T13:27:46.272Z,14.75
2023-02-02T13:29:59.982Z,13.90
2023-02-02T13:32:15.017Z,16.02
2023-02-02T13:34:29.240Z,11.57
2023-02-02T13:36:37.527Z,8.40
2023-02-02T13:38:42.351Z,10.55
2023-02-02T13:40:45.074Z,12.82
2023-02-02T13:43:19.610Z,9.68
2023-02-02T13:45:48.171Z,9.32
2023-02-02T13:47:58.957Z,10.77
2023-02-02T13:50:07.384Z,21.52
2023-02-02T13:52:45.370Z,18.30
2023-02-02T13:55:07.424Z,12.82
2023-02-02T13:57:37.327Z,13.30
2023-02-02T14:00:18.882Z,17.77
2023-02-02T16:14:30.355Z,35.17
2023-02-02T16:16:35.073Z,41.65
2023-02-02T16:18:37.998Z,53.78
2023-02-02T16:20:40.530Z,52.45
2023-02-02T16:22:51.256Z,55.65
2023-02-02T16:24:56.643Z,59.50
2023-02-02T16:27:00.819Z,53.80
2023-02-02T16:29:03.135Z,53.17
2023-02-02T16:31:05.646Z,52.03
2023-02-02T16:33:30.877Z,61.63
2023-02-02T16:35:38.739Z,57.47
2023-02-02T16:37:40.773Z,61.78
2023-02-02T16:41:47.570Z,64.35
2023-02-02T16:43:50.205Z,78.80
2023-02-02T16:45:58.692Z,70.13
2023-02-02T16:48:19.579Z,67.82
2023-02-02T16:50:31.559Z,76.65
2023-02-02T16:52:37.364Z,68.65
2023-02-02T16:54:45.740Z,45.75
2023-02-02T16:56:59.526Z,59.47
2023-02-02T16:59:22.662Z,39.88
2023-02-02T17:01:40.615Z,38.60
2023-02-02T17:03:51.105Z,65.95
2023-02-02T17:05:56.904Z,57.22
2023-02-02T17:08:04.757Z,53.00
2023-02-02T17:10:31.367Z,52.97
2023-02-02T17:12:34.800Z,90.88
2023-02-02T17:14:37.885Z,120.78
2023-02-02T17:16:40.946Z,99.55
2023-02-02T17:18:43.275Z,65.25
2023-02-02T17:20:45.365Z,87.90
2023-02-02T17:24:52.633Z,71.45
2023-02-02T17:26:58.033Z,73.60
2023-02-02T17:29:00.623Z,62.42
2023-02-02T17:31:07.081Z,46.60
2023-02-02T17:33:14.877Z,45.65
2023-02-02T17:35:34.723Z,41.80
2023-02-02T17:37:42.093Z,39.13
2023-02-02T17:41:48.348Z,45.20
2023-02-02T17:43:50.280Z,58.28
2023-02-02T17:45:52.453Z,53.00
2023-02-02T17:47:56.800Z,58.95
2023-02-02T17:49:58.899Z,54.63
2023-02-02T17:54:08.940Z,62.22
2023-02-02T17:56:11.022Z,56.50
2023-02-02T18:00:19.546Z,48.17
2023-02-02T20:14:38.691Z,30.08
2023-02-02T20:16:42.205Z,30.48
2023-02-02T20:18:53.164Z,33.80
2023-02-02T20:20:56.881Z,28.17
2023-02-02T20:22:59.022Z,26.67
2023-02-02T20:25:09.265Z,24.58
2023-02-02T20:27:20.253Z,29.48
2023-02-02T20:29:24.935Z,33.83
2023-02-02T20:31:38.569Z,38.33
2023-02-02T20:33:48.246Z,36.58
2023-02-02T20:35:50.219Z,33.45
2023-02-02T20:37:52.231Z,40.70
2023-02-02T20:42:08.780Z,35.13
2023-02-02T20:46:13.845Z,26.27
2023-02-02T20:48:15.864Z,29.65
2023-02-02T20:52:24.217Z,22.08
2023-02-02T20:54:26.523Z,27.02
2023-02-02T20:56:28.468Z,25.52
2023-02-02T20:58:30.377Z,25.25
2023-02-02T21:00:32.922Z,29.88
2023-02-02T21:02:35.048Z,32.13
2023-02-02T21:06:40.715Z,29.25
2023-02-02T21:08:43.789Z,27.85
2023-02-02T21:10:45.772Z,21.73
2023-02-02T21:14:54.551Z,23.88
2023-02-02T21:17:09.070Z,24.27
2023-02-02T21:19:16.164Z,22.98
2023-02-02T21:21:19.384Z,24.40
2023-02-02T21:23:22.031Z,21.50
2023-02-02T21:25:24.067Z,25.35
2023-02-02T21:29:31.267Z,23.08
2023-02-02T21:31:35.430Z,26.73
2023-02-02T21:33:37.982Z,25.15
2023-02-02T21:35:39.922Z,23.38
2023-02-02T21:37:44.112Z,27.27
2023-02-02T21:39:48.771Z,33.92
2023-02-02T21:41:55.041Z,28.58
2023-02-02T21:43:58.676Z,41.05
2023-02-02T21:46:03.178Z,46.75
2023-02-02T21:48:23.234Z,26.42
2023-02-02T21:50:37.756Z,31.98
2023-02-02T21:52:39.641Z,30.90
2023-02-02T21:54:42.718Z,29.52
2023-02-02T21:56:44.588Z,30.70
2023-02-02T21:58:47.637Z,33.25
2023-02-02T22:00:50.358Z,29.20
